createdAt,value
2023-03-03T00:01:41.898Z,3.84
2023-03-03T00:04:09.846Z,3.85
2023-03-03T00:06:37.815Z,3.71
2023-03-03T00:09:07.120Z,3.72
2023-03-03T00:11:35.025Z,3.67
2023-03-03T00:14:02.943Z,3.67
2023-03-03T00:16:36.474Z,3.66
2023-03-03T00:19:04.938Z,3.73
2023-03-03T00:21:34.398Z,3.56
2023-03-03T00:24:24.537Z,3.57
2023-03-03T00:26:55.546Z,3.58
2023-03-03T00:29:36.202Z,3.62
2023-03-03T00:32:26.140Z,3.51
2023-03-03T00:34:56.193Z,3.48
2023-03-03T00:37:29.206Z,3.41
2023-03-03T00:40:15.013Z,3.37
2023-03-03T00:42:44.169Z,3.41
2023-03-03T00:45:25.600Z,3.36
2023-03-03T00:47:53.832Z,3.32
2023-03-03T00:50:33.415Z,3.32
2023-03-03T00:53:07.369Z,3.31
2023-03-03T00:55:37.212Z,3.34
2023-03-03T00:58:05.791Z,3.38
2023-03-03T01:00:38.754Z,3.30
2023-03-03T01:03:10.631Z,3.24
2023-03-03T01:05:38.704Z,3.19
2023-03-03T01:08:07.156Z,3.20
2023-03-03T01:10:40.354Z,3.19
2023-03-03T01:13:09.532Z,3.21
2023-03-03T01:15:38.822Z,3.06
2023-03-03T01:18:06.993Z,3.09
2023-03-03T01:20:35.055Z,3.21
2023-03-03T01:23:03.166Z,3.19
2023-03-03T01:25:31.284Z,3.21
2023-03-03T01:28:01.228Z,3.20
2023-03-03T01:30:29.655Z,3.21
2023-03-03T01:32:57.706Z,3.24
2023-03-03T01:35:25.760Z,3.24
2023-03-03T01:37:53.781Z,3.24
2023-03-03T01:40:24.768Z,3.26
2023-03-03T01:42:53.418Z,3.26
2023-03-03T01:45:25.567Z,3.23
2023-03-03T01:47:57.732Z,3.27
2023-03-03T01:50:37.057Z,3.28
2023-03-03T01:53:07.831Z,3.25
2023-03-03T01:55:40.707Z,3.19
2023-03-03T01:58:12.198Z,3.19
2023-03-03T02:00:45.992Z,3.14
2023-03-03T02:03:13.976Z,3.18
2023-03-03T02:05:44.319Z,3.20
2023-03-03T02:08:16.276Z,3.20
2023-03-03T02:10:46.012Z,3.20
2023-03-03T02:13:13.954Z,3.08
2023-03-03T02:15:43.732Z,2.99
2023-03-03T02:18:14.364Z,2.98
2023-03-03T02:20:58.463Z,2.95
2023-03-03T02:23:32.818Z,2.96
2023-03-03T02:26:08.085Z,2.92
2023-03-03T02:28:38.470Z,2.99
2023-03-03T02:31:13.379Z,2.99
2023-03-03T02:33:43.466Z,2.73
2023-03-03T02:36:14.955Z,2.39
2023-03-03T02:38:49.605Z,2.44
2023-03-03T02:41:28.045Z,2.50
2023-03-03T02:44:00.556Z,2.59
2023-03-03T02:46:30.016Z,2.70
2023-03-03T02:48:57.970Z,2.77
2023-03-03T02:51:26.047Z,2.82
2023-03-03T02:53:53.986Z,2.79
2023-03-03T02:56:23.447Z,2.79
2023-03-03T02:58:51.389Z,2.77
2023-03-03T03:01:20.333Z,2.77
2023-03-03T03:03:48.529Z,2.75
2023-03-03T03:06:20.533Z,2.75
2023-03-03T03:08:48.938Z,2.71
2023-03-03T03:11:17.194Z,2.68
2023-03-03T03:13:46.710Z,2.70
2023-03-03T03:16:14.642Z,2.71
2023-03-03T03:18:42.743Z,2.75
2023-03-03T03:21:12.835Z,2.80
2023-03-03T03:23:42.017Z,2.80
2023-03-03T03:26:10.804Z,2.81
2023-03-03T03:28:39.638Z,2.79
2023-03-03T03:31:10.639Z,2.77
2023-03-03T03:33:38.790Z,2.80
2023-03-03T03:36:08.819Z,2.78
2023-03-03T03:38:37.781Z,2.72
2023-03-03T03:41:08.931Z,2.67
2023-03-03T03:43:37.213Z,2.68
2023-03-03T03:46:05.797Z,2.74
2023-03-03T03:48:36.283Z,2.71
2023-03-03T03:51:06.675Z,2.66
2023-03-03T03:53:35.692Z,2.66
2023-03-03T03:56:03.667Z,2.65
2023-03-03T03:58:32.285Z,2.60
2023-03-03T04:01:05.908Z,2.59
2023-03-03T04:03:38.071Z,2.59
2023-03-03T04:06:11.438Z,2.54
2023-03-03T04:08:39.627Z,2.52
2023-03-03T04:11:09.480Z,2.52
2023-03-03T04:13:38.485Z,2.52
2023-03-03T04:16:08.652Z,2.53
2023-03-03T04:18:38.641Z,2.54
2023-03-03T04:21:07.444Z,2.52
2023-03-03T04:23:35.650Z,2.54
2023-03-03T04:26:04.041Z,2.53
2023-03-03T04:28:32.052Z,2.28
2023-03-03T04:31:00.935Z,2.33
2023-03-03T04:33:31.337Z,2.36
2023-03-03T04:36:01.553Z,2.40
2023-03-03T04:38:30.127Z,2.44
2023-03-03T04:40:58.424Z,2.43
2023-03-03T04:43:29.267Z,2.42
2023-03-03T04:45:58.218Z,2.40
2023-03-03T04:48:26.456Z,2.33
2023-03-03T04:50:55.034Z,2.35
2023-03-03T04:53:24.429Z,2.35
2023-03-03T04:55:54.057Z,2.34
2023-03-03T04:58:23.630Z,2.31
2023-03-03T05:00:56.253Z,2.33
2023-03-03T05:03:27.157Z,2.34
2023-03-03T05:05:55.148Z,2.34
2023-03-03T05:08:25.065Z,2.34
2023-03-03T05:10:54.157Z,2.33
2023-03-03T05:13:22.725Z,2.32
2023-03-03T05:15:52.255Z,2.28
2023-03-03T05:18:20.983Z,2.33
2023-03-03T05:20:49.085Z,2.37
2023-03-03T05:23:17.177Z,2.40
2023-03-03T05:25:47.979Z,2.35
2023-03-03T05:28:16.315Z,2.29
2023-03-03T05:30:44.400Z,2.26
2023-03-03T05:33:15.191Z,2.30
2023-03-03T05:35:43.488Z,2.28
2023-03-03T05:38:11.722Z,2.23
2023-03-03T05:40:39.886Z,2.25
2023-03-03T05:43:09.191Z,2.27
2023-03-03T05:45:37.127Z,2.26
2023-03-03T05:48:05.325Z,2.25
2023-03-03T05:50:33.603Z,2.25
2023-03-03T05:53:01.542Z,2.23
2023-03-03T05:55:29.604Z,2.27
2023-03-03T05:57:57.698Z,2.28
2023-03-03T06:00:27.334Z,2.23
2023-03-03T06:02:55.344Z,2.17
2023-03-03T06:05:23.483Z,2.14
2023-03-03T06:07:51.377Z,2.13
2023-03-03T06:10:19.574Z,2.11
2023-03-03T06:12:52.221Z,2.13
2023-03-03T06:15:20.309Z,2.12
2023-03-03T06:17:49.732Z,2.13
2023-03-03T06:20:17.913Z,2.11
2023-03-03T06:22:45.929Z,2.14
2023-03-03T06:25:13.996Z,2.17
2023-03-03T06:27:41.909Z,2.19
2023-03-03T06:30:11.269Z,2.21
2023-03-03T06:32:39.363Z,2.02
2023-03-03T06:35:09.438Z,1.66
2023-03-03T06:37:37.391Z,1.66
2023-03-03T06:40:07.111Z,1.78
2023-03-03T06:42:35.161Z,1.78
2023-03-03T06:45:03.089Z,1.92
2023-03-03T06:47:31.656Z,1.91
2023-03-03T06:49:59.596Z,1.93
2023-03-03T06:52:28.992Z,1.98
2023-03-03T06:54:59.615Z,2.06
2023-03-03T06:57:29.607Z,2.08
2023-03-03T07:00:01.673Z,2.19
2023-03-03T07:02:29.660Z,2.25
2023-03-03T07:04:58.010Z,2.26
2023-03-03T07:07:28.056Z,2.33
2023-03-03T07:09:57.526Z,2.34
2023-03-03T07:12:27.544Z,2.40
2023-03-03T07:15:01.517Z,2.41
2023-03-03T07:17:29.437Z,2.47
2023-03-03T07:19:57.378Z,2.50
2023-03-03T07:22:30.265Z,2.55
2023-03-03T07:25:01.961Z,2.60
2023-03-03T07:27:31.751Z,2.57
2023-03-03T07:30:18.744Z,2.39
2023-03-03T07:32:48.566Z,2.45
2023-03-03T07:35:38.872Z,2.55
2023-03-03T07:38:26.271Z,2.69
2023-03-03T07:40:56.209Z,2.75
2023-03-03T07:43:32.146Z,2.76
2023-03-03T07:46:05.883Z,2.85
2023-03-03T07:48:40.210Z,2.88
2023-03-03T07:51:15.656Z,2.80
2023-03-03T07:53:45.042Z,2.91
2023-03-03T07:56:28.660Z,2.78
2023-03-03T07:58:57.644Z,2.69
2023-03-03T08:01:42.627Z,2.55
2023-03-03T08:04:25.063Z,2.52
2023-03-03T08:06:55.533Z,2.63
2023-03-03T08:09:39.338Z,2.75
2023-03-03T08:12:31.457Z,2.84
2023-03-03T08:15:13.254Z,2.86
2023-03-03T08:17:43.704Z,2.94
2023-03-03T08:20:42.873Z,3.10
2023-03-03T08:23:10.807Z,3.19
2023-03-03T08:25:41.004Z,3.31
2023-03-03T08:28:09.204Z,3.31
2023-03-03T08:30:37.178Z,3.30
2023-03-03T08:33:05.453Z,3.42
2023-03-03T08:35:33.422Z,3.52
2023-03-03T08:38:01.468Z,3.47
2023-03-03T08:40:29.420Z,3.46
2023-03-03T08:42:59.236Z,3.55
2023-03-03T08:45:27.666Z,3.46
2023-03-03T08:47:55.667Z,3.55
2023-03-03T08:50:24.041Z,3.78
2023-03-03T08:52:52.027Z,3.84
2023-03-03T08:55:19.975Z,3.78
2023-03-03T08:57:48.287Z,3.62
2023-03-03T09:00:20.565Z,3.63
2023-03-03T09:02:49.321Z,3.57
2023-03-03T09:05:17.757Z,3.90
2023-03-03T09:07:47.933Z,4.09
2023-03-03T09:10:19.077Z,4.27
2023-03-03T09:12:49.405Z,4.44
2023-03-03T09:15:24.606Z,4.54
2023-03-03T09:17:53.115Z,4.46
2023-03-03T09:20:31.731Z,4.37
2023-03-03T09:23:00.195Z,4.33
2023-03-03T09:25:34.390Z,4.07
2023-03-03T09:28:03.240Z,4.00
2023-03-03T09:30:39.893Z,3.93
2023-03-03T09:33:33.436Z,4.06
2023-03-03T09:36:11.155Z,4.10
2023-03-03T09:38:45.810Z,3.98
2023-03-03T09:41:46.700Z,3.94
2023-03-03T09:44:33.224Z,3.86
2023-03-03T09:47:24.186Z,4.04
2023-03-03T09:50:02.936Z,4.27
2023-03-03T09:52:41.668Z,4.35
2023-03-03T09:55:25.596Z,4.24
2023-03-03T09:58:11.125Z,4.20
2023-03-03T10:00:52.528Z,4.17
2023-03-03T10:03:47.016Z,4.50
2023-03-03T10:06:23.185Z,4.29
2023-03-03T10:09:07.959Z,4.32
2023-03-03T10:11:43.057Z,4.63
2023-03-03T10:14:37.124Z,4.81
2023-03-03T10:17:22.797Z,5.00
2023-03-03T10:20:07.995Z,5.00
2023-03-03T10:22:44.342Z,4.97
2023-03-03T10:25:22.508Z,4.80
2023-03-03T10:28:05.770Z,4.86
2023-03-03T10:30:58.561Z,4.87
2023-03-03T10:33:39.074Z,4.95
2023-03-03T10:36:30.462Z,4.83
2023-03-03T10:39:19.388Z,5.04
2023-03-03T10:42:04.466Z,5.22
2023-03-03T10:44:47.204Z,5.17
2023-03-03T10:47:29.805Z,4.83
2023-03-03T10:50:08.803Z,4.67
2023-03-03T10:52:48.028Z,4.77
2023-03-03T10:55:29.604Z,4.98
2023-03-03T10:58:13.172Z,4.94
2023-03-03T11:00:46.492Z,4.84
2023-03-03T11:03:52.795Z,4.71
2023-03-03T11:06:26.173Z,4.61
2023-03-03T11:09:03.527Z,4.46
2023-03-03T11:11:41.561Z,4.57
2023-03-03T11:14:14.938Z,4.77
2023-03-03T11:16:51.881Z,5.02
2023-03-03T11:19:41.563Z,4.96
2023-03-03T11:22:22.546Z,5.04
2023-03-03T11:25:01.472Z,5.13
2023-03-03T11:28:08.343Z,5.00
2023-03-03T11:30:48.056Z,5.18
2023-03-03T11:33:21.867Z,5.06
2023-03-03T11:35:54.470Z,5.21
2023-03-03T11:38:35.652Z,5.36
2023-03-03T11:41:12.976Z,5.47
2023-03-03T11:43:46.749Z,5.41
2023-03-03T11:46:18.131Z,5.50
2023-03-03T11:48:55.146Z,5.58
2023-03-03T11:51:34.227Z,5.60
2023-03-03T11:54:06.735Z,5.54
2023-03-03T11:56:41.635Z,5.60
2023-03-03T11:59:30.214Z,5.71
2023-03-03T12:02:01.253Z,5.74
2023-03-03T12:04:35.664Z,5.62
2023-03-03T12:07:19.810Z,5.51
2023-03-03T12:09:57.974Z,5.68
2023-03-03T12:12:34.270Z,5.57
2023-03-03T12:15:20.659Z,5.71
2023-03-03T12:18:03.855Z,5.82
2023-03-03T12:20:38.938Z,5.94
2023-03-03T12:23:21.482Z,6.00
2023-03-03T12:25:56.038Z,6.07
2023-03-03T12:28:28.795Z,6.13
2023-03-03T12:31:08.625Z,6.10
2023-03-03T12:33:51.399Z,6.09
2023-03-03T12:36:33.992Z,6.11
2023-03-03T12:39:08.646Z,5.94
2023-03-03T12:41:44.333Z,5.86
2023-03-03T12:44:23.222Z,5.88
2023-03-03T12:47:01.820Z,5.78
2023-03-03T12:49:43.395Z,5.68
2023-03-03T12:52:24.321Z,5.71
2023-03-03T12:55:06.773Z,5.70
2023-03-03T12:57:44.189Z,5.75
2023-03-03T13:00:44.833Z,5.89
2023-03-03T13:03:30.363Z,5.91
2023-03-03T13:06:08.240Z,5.89
2023-03-03T13:08:52.928Z,5.83
2023-03-03T13:11:35.415Z,5.86
2023-03-03T13:14:14.844Z,6.03
2023-03-03T13:16:50.350Z,6.11
2023-03-03T13:19:23.061Z,5.83
2023-03-03T13:21:56.028Z,5.95
2023-03-03T13:24:30.218Z,6.02
2023-03-03T13:27:02.562Z,5.95
2023-03-03T13:29:36.445Z,5.88
2023-03-03T13:32:13.629Z,6.04
2023-03-03T13:34:52.741Z,5.90
2023-03-03T13:37:24.925Z,6.06
2023-03-03T13:39:59.723Z,6.19
2023-03-03T13:42:34.655Z,6.18
2023-03-03T13:45:07.974Z,6.29
2023-03-03T13:47:47.149Z,6.18
2023-03-03T13:50:25.163Z,6.11
2023-03-03T13:53:12.577Z,6.04
2023-03-03T13:55:44.829Z,6.19
2023-03-03T13:58:24.815Z,6.23
2023-03-03T14:00:58.664Z,6.46
2023-03-03T14:03:48.448Z,6.67
2023-03-03T14:06:19.037Z,6.84
2023-03-03T14:09:00.805Z,6.75
2023-03-03T14:11:36.583Z,6.98
2023-03-03T14:14:14.802Z,7.28
2023-03-03T14:16:51.588Z,7.11
2023-03-03T14:19:26.401Z,7.25
2023-03-03T14:22:07.071Z,7.70
2023-03-03T14:25:01.750Z,7.69
2023-03-03T14:27:36.231Z,7.74
2023-03-03T14:30:28.536Z,7.88
2023-03-03T14:33:30.911Z,7.86
2023-03-03T14:36:11.893Z,7.92
2023-03-03T14:38:44.461Z,8.08
2023-03-03T14:41:17.342Z,8.22
2023-03-03T14:43:47.368Z,8.28
2023-03-03T14:46:33.586Z,7.85
2023-03-03T14:49:03.673Z,7.80
2023-03-03T14:51:41.775Z,7.82
2023-03-03T14:54:17.588Z,7.64
2023-03-03T14:57:01.969Z,7.72
2023-03-03T14:59:30.232Z,7.76
2023-03-03T15:02:29.622Z,7.77
2023-03-03T15:05:17.503Z,7.86
2023-03-03T15:07:48.144Z,7.80
2023-03-03T15:10:32.537Z,7.91
2023-03-03T15:13:11.028Z,7.86
2023-03-03T15:15:52.909Z,7.76
2023-03-03T15:18:21.719Z,7.63
2023-03-03T15:20:57.396Z,7.60
2023-03-03T15:23:45.100Z,7.66
2023-03-03T15:26:20.342Z,7.66
2023-03-03T15:29:01.724Z,7.59
2023-03-03T15:31:38.716Z,7.62
2023-03-03T15:34:26.714Z,7.62
2023-03-03T15:37:03.433Z,7.64
2023-03-03T15:39:42.241Z,7.63
2023-03-03T15:42:15.406Z,7.52
2023-03-03T15:44:57.547Z,7.40
2023-03-03T15:47:46.196Z,7.30
2023-03-03T15:50:27.747Z,7.36
2023-03-03T15:53:09.189Z,7.48
2023-03-03T15:55:53.652Z,7.60
2023-03-03T15:58:52.091Z,7.45
2023-03-03T16:01:27.807Z,7.41
2023-03-03T16:03:59.063Z,7.56
2023-03-03T16:06:39.830Z,7.60
2023-03-03T16:09:19.556Z,7.58
2023-03-03T16:11:55.946Z,7.60
2023-03-03T16:15:01.958Z,7.74
2023-03-03T16:17:37.923Z,7.84
2023-03-03T16:20:16.671Z,7.77
2023-03-03T16:22:57.180Z,7.75
2023-03-03T16:25:43.824Z,7.74
2023-03-03T16:28:19.593Z,7.72
2023-03-03T16:30:53.779Z,7.72
2023-03-03T16:33:27.992Z,7.73
2023-03-03T16:36:04.643Z,7.64
2023-03-03T16:38:38.287Z,7.61
2023-03-03T16:41:10.274Z,7.48
2023-03-03T16:43:47.448Z,7.44
2023-03-03T16:46:26.609Z,7.34
2023-03-03T16:49:02.450Z,7.21
2023-03-03T16:51:42.646Z,7.10
2023-03-03T16:54:17.373Z,6.97
2023-03-03T16:56:52.832Z,6.85
2023-03-03T16:59:53.089Z,6.81
2023-03-03T17:02:49.498Z,6.64
2023-03-03T17:05:30.455Z,6.49
2023-03-03T17:08:20.112Z,6.39
2023-03-03T17:10:53.337Z,6.33
2023-03-03T17:13:46.908Z,6.19
2023-03-03T17:16:23.579Z,6.06
2023-03-03T17:19:05.540Z,5.93
2023-03-03T17:21:42.766Z,5.93
2023-03-03T17:24:19.492Z,5.78
2023-03-03T17:26:59.429Z,5.54
2023-03-03T17:29:59.547Z,5.62
2023-03-03T17:32:53.557Z,5.58
2023-03-03T17:35:57.240Z,5.61
2023-03-03T17:38:37.362Z,5.60
2023-03-03T17:41:10.420Z,5.60
2023-03-03T17:43:48.990Z,5.61
2023-03-03T17:46:22.350Z,5.46
2023-03-03T17:49:11.240Z,5.29
2023-03-03T17:51:55.236Z,5.03
2023-03-03T17:54:44.432Z,4.74
2023-03-03T17:57:26.873Z,4.58
2023-03-03T18:00:26.529Z,4.54
2023-03-03T18:03:35.394Z,4.61
2023-03-03T18:06:54.190Z,4.65
2023-03-03T18:09:37.942Z,4.71
2023-03-03T18:12:13.586Z,4.69
2023-03-03T18:15:07.968Z,4.55
2023-03-03T18:17:52.700Z,4.45
2023-03-03T18:20:34.105Z,4.43
2023-03-03T18:23:29.517Z,4.48
2023-03-03T18:26:00.157Z,4.13
2023-03-03T18:28:45.301Z,4.10
2023-03-03T18:31:24.338Z,4.11
2023-03-03T18:34:09.380Z,4.14
2023-03-03T18:36:40.375Z,4.16
2023-03-03T18:39:15.384Z,4.20
2023-03-03T18:42:10.410Z,4.10
2023-03-03T18:44:38.570Z,4.07
2023-03-03T18:47:06.751Z,4.10
2023-03-03T18:50:16.184Z,4.03
2023-03-03T18:53:14.530Z,3.87
2023-03-03T18:55:44.936Z,3.80
2023-03-03T18:58:42.212Z,3.79
2023-03-03T19:01:41.846Z,3.84
2023-03-03T19:04:25.183Z,3.86
2023-03-03T19:07:14.201Z,3.91
2023-03-03T19:09:56.812Z,3.99
2023-03-03T19:12:54.642Z,4.02
2023-03-03T19:15:57.224Z,3.97
2023-03-03T19:18:27.846Z,4.01
2023-03-03T19:21:01.676Z,3.96
2023-03-03T19:23:51.106Z,3.97
2023-03-03T19:26:42.056Z,3.95
2023-03-03T19:29:26.093Z,3.91
2023-03-03T19:32:06.438Z,4.03
2023-03-03T19:34:41.204Z,4.14
2023-03-03T19:37:23.390Z,4.26
2023-03-03T19:40:00.915Z,4.45
2023-03-03T19:42:47.430Z,4.48
2023-03-03T19:45:34.345Z,4.56
2023-03-03T19:48:08.470Z,4.44
2023-03-03T19:50:49.114Z,4.17
2023-03-03T19:53:26.734Z,3.98
2023-03-03T19:56:07.437Z,3.99
2023-03-03T19:58:45.031Z,4.09
2023-03-03T20:01:24.403Z,4.06
2023-03-03T20:04:17.548Z,4.03
2023-03-03T20:06:56.119Z,4.07
2023-03-03T20:09:42.725Z,4.30
2023-03-03T20:12:39.191Z,4.38
2023-03-03T20:15:15.929Z,4.41
2023-03-03T20:18:21.475Z,4.49
2023-03-03T20:21:01.732Z,4.34
2023-03-03T20:23:36.567Z,4.43
2023-03-03T20:26:13.783Z,4.41
2023-03-03T20:28:57.797Z,4.46
2023-03-03T20:31:33.848Z,4.53
2023-03-03T20:34:11.181Z,4.60
2023-03-03T20:36:50.587Z,4.67
2023-03-03T20:39:29.627Z,4.80
2023-03-03T20:42:09.374Z,4.83
2023-03-03T20:45:00.543Z,4.80
2023-03-03T20:47:39.633Z,4.81
2023-03-03T20:50:22.768Z,4.84
2023-03-03T20:53:07.677Z,4.81
2023-03-03T20:55:44.344Z,4.78
2023-03-03T20:58:20.232Z,4.75
2023-03-03T21:00:53.926Z,4.79
2023-03-03T21:03:29.780Z,4.83
2023-03-03T21:06:00.772Z,4.83
2023-03-03T21:08:44.903Z,4.80
2023-03-03T21:11:14.601Z,4.85
2023-03-03T21:13:44.299Z,4.87
2023-03-03T21:16:30.304Z,4.88
2023-03-03T21:18:59.064Z,4.82
2023-03-03T21:21:29.766Z,4.79
2023-03-03T21:23:59.649Z,4.81
2023-03-03T21:26:55.865Z,4.82
2023-03-03T21:29:26.684Z,4.85
2023-03-03T21:31:56.209Z,4.88
2023-03-03T21:34:30.228Z,4.96
2023-03-03T21:36:59.480Z,4.99
2023-03-03T21:39:30.921Z,4.90
2023-03-03T21:42:01.908Z,4.85
2023-03-03T21:44:32.320Z,4.90
2023-03-03T21:47:00.379Z,4.86
2023-03-03T21:49:28.715Z,4.85
2023-03-03T21:51:57.664Z,4.93
2023-03-03T21:54:25.809Z,4.88
2023-03-03T21:56:55.141Z,4.88
2023-03-03T21:59:23.064Z,4.89
2023-03-03T22:01:50.975Z,4.93
2023-03-03T22:04:19.076Z,4.93
2023-03-03T22:06:47.063Z,4.93
2023-03-03T22:09:15.382Z,4.94
2023-03-03T22:11:43.314Z,4.97
2023-03-03T22:14:12.853Z,4.97
2023-03-03T22:16:40.859Z,4.98
2023-03-03T22:19:10.227Z,4.85
2023-03-03T22:21:39.077Z,4.74
2023-03-03T22:24:07.844Z,4.78
2023-03-03T22:26:36.632Z,4.79
2023-03-03T22:29:05.000Z,4.81
2023-03-03T22:31:34.358Z,4.84
2023-03-03T22:34:02.332Z,4.89
2023-03-03T22:36:30.259Z,4.89
2023-03-03T22:38:58.176Z,4.94
2023-03-03T22:41:26.059Z,4.90
2023-03-03T22:43:54.002Z,4.83
2023-03-03T22:46:21.977Z,4.81
2023-03-03T22:48:51.479Z,4.52
2023-03-03T22:51:22.077Z,4.54
2023-03-03T22:53:50.218Z,4.63
2023-03-03T22:56:18.164Z,4.71
2023-03-03T22:58:46.110Z,4.74
2023-03-03T23:01:14.188Z,4.84
2023-03-03T23:03:42.169Z,4.89
2023-03-03T23:06:11.406Z,4.94
2023-03-03T23:08:39.400Z,4.97
2023-03-03T23:11:07.305Z,4.97
2023-03-03T23:13:35.357Z,4.95
2023-03-03T23:16:03.463Z,5.00
2023-03-03T23:18:31.478Z,5.02
2023-03-03T23:20:59.473Z,5.00
2023-03-03T23:23:29.694Z,4.95
2023-03-03T23:25:57.933Z,4.89
2023-03-03T23:28:25.885Z,4.89
2023-03-03T23:30:53.812Z,4.94
2023-03-03T23:33:21.857Z,4.96
2023-03-03T23:35:49.941Z,4.98
2023-03-03T23:38:17.966Z,5.01
2023-03-03T23:40:47.707Z,4.99
2023-03-03T23:43:15.704Z,4.94
2023-03-03T23:45:43.758Z,4.92
2023-03-03T23:48:11.916Z,4.98
2023-03-03T23:50:40.032Z,5.02
2023-03-03T23:53:08.928Z,5.03
2023-03-03T23:55:37.717Z,5.05
2023-03-03T23:58:07.241Z,5.05
